createdAt,value
2023-05-17T00:02:55.082Z,8.88
2023-05-17T00:17:48.821Z,8.76
2023-05-17T00:32:48.659Z,8.57
2023-05-17T00:47:48.461Z,8.68
2023-05-17T01:02:48.325Z,8.69
2023-05-17T01:17:48.135Z,8.47
2023-05-17T01:32:47.989Z,8.55
2023-05-17T01:47:47.815Z,8.36
2023-05-17T02:02:47.668Z,8.18
2023-05-17T02:17:47.522Z,8.00
2023-05-17T02:32:47.329Z,7.92
2023-05-17T02:47:47.285Z,8.00
2023-05-17T03:02:47.074Z,8.42
2023-05-17T03:17:46.864Z,8.68
2023-05-17T03:32:46.762Z,8.81
2023-05-17T03:47:46.501Z,8.87
2023-05-17T04:02:46.393Z,9.02
2023-05-17T04:17:46.235Z,8.86
2023-05-17T04:32:46.061Z,8.93
2023-05-17T04:47:45.925Z,9.10
2023-05-17T05:02:45.773Z,9.12
2023-05-17T05:17:45.586Z,9.27
2023-05-17T05:32:45.434Z,9.31
2023-05-17T05:47:45.211Z,9.82
2023-05-17T06:02:45.047Z,10.28
2023-05-17T06:17:51.386Z,10.21
2023-05-17T06:32:44.848Z,11.27
2023-05-17T06:47:44.606Z,11.24
2023-05-17T07:02:44.446Z,10.71
2023-05-17T07:17:44.255Z,12.95
2023-05-17T07:32:44.116Z,13.79
2023-05-17T07:47:44.013Z,13.21
2023-05-17T08:02:43.795Z,13.87
2023-05-17T08:17:43.674Z,13.74
2023-05-17T08:32:43.501Z,14.16
2023-05-17T08:47:43.402Z,14.24
2023-05-17T09:02:43.304Z,14.80
2023-05-17T09:17:43.075Z,14.86
2023-05-17T09:32:42.866Z,15.36
2023-05-17T09:47:42.738Z,15.36
2023-05-17T10:02:42.614Z,15.52
2023-05-17T10:17:43.965Z,16.04
2023-05-17T10:32:42.285Z,16.09
2023-05-17T10:47:42.007Z,16.14
2023-05-17T11:02:41.907Z,16.20
2023-05-17T11:17:41.699Z,16.50
2023-05-17T11:32:41.602Z,16.16
2023-05-17T11:47:41.473Z,16.56
2023-05-17T12:02:41.272Z,16.44
2023-05-17T12:17:41.135Z,16.80
2023-05-17T12:32:41.036Z,16.59
2023-05-17T12:47:46.768Z,16.95
2023-05-17T13:02:41.767Z,17.48
2023-05-17T13:17:40.561Z,17.26
2023-05-17T13:32:40.405Z,17.50
2023-05-17T13:47:41.236Z,17.54
2023-05-17T14:02:40.727Z,17.73
2023-05-17T14:17:39.846Z,16.92
2023-05-17T14:32:39.730Z,17.55
2023-05-17T14:47:39.627Z,17.91
2023-05-17T15:02:39.395Z,16.88
2023-05-17T15:17:39.326Z,16.86
2023-05-17T15:32:39.130Z,17.38
2023-05-17T15:47:43.248Z,17.15
2023-05-17T16:02:38.767Z,16.58
2023-05-17T16:17:38.648Z,16.06
2023-05-17T16:32:38.505Z,16.01
2023-05-17T16:47:38.376Z,15.49
2023-05-17T17:02:38.200Z,15.21
2023-05-17T17:17:38.006Z,14.99
2023-05-17T17:32:37.825Z,14.87
2023-05-17T17:47:37.864Z,14.12
2023-05-17T18:02:37.500Z,13.76
2023-05-17T18:17:37.423Z,13.49
2023-05-17T18:32:37.238Z,13.20
2023-05-17T18:47:37.094Z,12.88
2023-05-17T19:02:36.869Z,12.64
2023-05-17T19:17:36.738Z,12.27
2023-05-17T19:32:36.566Z,12.04
2023-05-17T19:47:36.332Z,11.34
2023-05-17T20:02:36.288Z,10.94
2023-05-17T20:17:36.153Z,10.84
2023-05-17T20:32:35.900Z,10.71
2023-05-17T20:47:35.721Z,10.12
2023-05-17T21:02:35.604Z,9.46
2023-05-17T21:17:35.437Z,8.93
2023-05-17T21:32:35.257Z,8.78
2023-05-17T21:47:35.089Z,8.50
2023-05-17T22:02:35.116Z,8.18
2023-05-17T22:17:43.176Z,7.96
2023-05-17T22:32:34.616Z,7.77
2023-05-17T22:47:34.494Z,7.74
2023-05-17T23:02:35.442Z,7.99
2023-05-17T23:17:34.232Z,8.35
2023-05-17T23:32:34.184Z,8.39
2023-05-17T23:47:33.942Z,8.35
